sensor_id;sensor_type;location;lat;lon;timestamp;P1;durP1;ratioP1;P2;durP2;ratioP2
11677;SDS011;5895;41.950;24.372;2023-08-06T00:00:02;5.07;;;4.68;;
11677;SDS011;5895;41.950;24.372;2023-08-06T00:02:30;5.25;;;4.38;;
11677;SDS011;5895;41.950;24.372;2023-08-06T00:04:57;6.10;;;5.20;;
11677;SDS011;5895;41.950;24.372;2023-08-06T00:07:24;6.35;;;4.85;;
11677;SDS011;5895;41.950;24.372;2023-08-06T00:09:53;5.60;;;5.10;;
11677;SDS011;5895;41.950;24.372;2023-08-06T00:12:20;5.57;;;4.95;;
11677;SDS011;5895;41.950;24.372;2023-08-06T00:14:49;5.78;;;5.00;;
11677;SDS011;5895;41.950;24.372;2023-08-06T00:17:17;5.15;;;4.65;;
11677;SDS011;5895;41.950;24.372;2023-08-06T00:19:45;5.50;;;5.00;;
11677;SDS011;5895;41.950;24.372;2023-08-06T00:22:12;7.00;;;4.90;;
11677;SDS011;5895;41.950;24.372;2023-08-06T00:24:39;6.18;;;5.13;;
11677;SDS011;5895;41.950;24.372;2023-08-06T00:27:08;6.97;;;4.60;;
11677;SDS011;5895;41.950;24.372;2023-08-06T00:29:35;5.13;;;4.57;;
11677;SDS011;5895;41.950;24.372;2023-08-06T00:32:03;5.05;;;4.65;;
11677;SDS011;5895;41.950;24.372;2023-08-06T00:34:30;5.97;;;4.95;;
11677;SDS011;5895;41.950;24.372;2023-08-06T00:36:57;7.00;;;4.57;;
11677;SDS011;5895;41.950;24.372;2023-08-06T00:39:25;6.30;;;4.97;;
11677;SDS011;5895;41.950;24.372;2023-08-06T00:41:52;5.70;;;4.85;;
11677;SDS011;5895;41.950;24.372;2023-08-06T00:44:21;6.90;;;4.65;;
11677;SDS011;5895;41.950;24.372;2023-08-06T00:46:48;6.82;;;5.15;;
11677;SDS011;5895;41.950;24.372;2023-08-06T00:49:15;5.00;;;4.50;;
11677;SDS011;5895;41.950;24.372;2023-08-06T00:51:43;5.50;;;5.00;;
11677;SDS011;5895;41.950;24.372;2023-08-06T00:54:10;5.32;;;4.72;;
11677;SDS011;5895;41.950;24.372;2023-08-06T00:56:38;6.35;;;4.85;;
11677;SDS011;5895;41.950;24.372;2023-08-06T00:59:06;5.60;;;5.10;;
11677;SDS011;5895;41.950;24.372;2023-08-06T01:01:35;5.60;;;5.10;;
11677;SDS011;5895;41.950;24.372;2023-08-06T01:04:02;6.53;;;4.82;;
11677;SDS011;5895;41.950;24.372;2023-08-06T01:06:33;5.43;;;4.93;;
11677;SDS011;5895;41.950;24.372;2023-08-06T01:09:08;5.82;;;5.32;;
11677;SDS011;5895;41.950;24.372;2023-08-06T01:11:49;8.15;;;5.72;;
11677;SDS011;5895;41.950;24.372;2023-08-06T01:14:25;7.85;;;6.28;;
11677;SDS011;5895;41.950;24.372;2023-08-06T01:16:58;8.48;;;7.00;;
11677;SDS011;5895;41.950;24.372;2023-08-06T01:19:28;8.02;;;7.30;;
11677;SDS011;5895;41.950;24.372;2023-08-06T01:21:56;7.00;;;6.32;;
11677;SDS011;5895;41.950;24.372;2023-08-06T01:24:23;7.05;;;5.95;;
11677;SDS011;5895;41.950;24.372;2023-08-06T01:26:57;7.40;;;6.80;;
11677;SDS011;5895;41.950;24.372;2023-08-06T01:29:31;7.30;;;6.57;;
11677;SDS011;5895;41.950;24.372;2023-08-06T01:32:02;9.25;;;6.63;;
11677;SDS011;5895;41.950;24.372;2023-08-06T01:34:32;8.57;;;7.78;;
11677;SDS011;5895;41.950;24.372;2023-08-06T01:37:02;8.70;;;7.80;;
11677;SDS011;5895;41.950;24.372;2023-08-06T01:39:31;11.25;;;9.57;;
11677;SDS011;5895;41.950;24.372;2023-08-06T01:41:59;11.63;;;10.35;;
11677;SDS011;5895;41.950;24.372;2023-08-06T01:44:27;11.27;;;10.18;;
11677;SDS011;5895;41.950;24.372;2023-08-06T01:46:54;13.98;;;10.82;;
11677;SDS011;5895;41.950;24.372;2023-08-06T01:49:21;11.98;;;10.77;;
11677;SDS011;5895;41.950;24.372;2023-08-06T01:51:48;16.25;;;11.27;;
11677;SDS011;5895;41.950;24.372;2023-08-06T01:54:17;11.77;;;10.73;;
11677;SDS011;5895;41.950;24.372;2023-08-06T01:56:44;12.15;;;10.57;;
11677;SDS011;5895;41.950;24.372;2023-08-06T01:59:11;11.68;;;10.48;;
11677;SDS011;5895;41.950;24.372;2023-08-06T02:01:38;12.20;;;10.73;;
11677;SDS011;5895;41.950;24.372;2023-08-06T02:04:05;12.18;;;10.93;;
11677;SDS011;5895;41.950;24.372;2023-08-06T02:06:33;12.95;;;11.65;;
11677;SDS011;5895;41.950;24.372;2023-08-06T02:09:00;14.43;;;11.07;;
11677;SDS011;5895;41.950;24.372;2023-08-06T02:11:28;11.50;;;10.25;;
11677;SDS011;5895;41.950;24.372;2023-08-06T02:13:55;10.10;;;8.82;;
11677;SDS011;5895;41.950;24.372;2023-08-06T02:16:22;10.20;;;9.20;;
11677;SDS011;5895;41.950;24.372;2023-08-06T02:18:49;9.55;;;8.68;;
11677;SDS011;5895;41.950;24.372;2023-08-06T02:21:17;9.70;;;8.80;;
11677;SDS011;5895;41.950;24.372;2023-08-06T02:23:44;9.80;;;8.93;;
11677;SDS011;5895;41.950;24.372;2023-08-06T02:26:11;9.50;;;8.60;;
11677;SDS011;5895;41.950;24.372;2023-08-06T02:28:40;8.95;;;8.15;;
11677;SDS011;5895;41.950;24.372;2023-08-06T02:31:07;8.80;;;8.10;;
11677;SDS011;5895;41.950;24.372;2023-08-06T02:33:34;9.85;;;8.90;;
11677;SDS011;5895;41.950;24.372;2023-08-06T02:36:01;9.23;;;8.32;;
11677;SDS011;5895;41.950;24.372;2023-08-06T02:38:29;8.75;;;8.05;;
11677;SDS011;5895;41.950;24.372;2023-08-06T02:40:57;9.00;;;8.18;;
11677;SDS011;5895;41.950;24.372;2023-08-06T02:43:25;12.10;;;8.85;;
11677;SDS011;5895;41.950;24.372;2023-08-06T02:45:57;8.98;;;8.18;;
11677;SDS011;5895;41.950;24.372;2023-08-06T02:48:25;8.23;;;7.40;;
11677;SDS011;5895;41.950;24.372;2023-08-06T02:50:52;8.80;;;7.90;;
11677;SDS011;5895;41.950;24.372;2023-08-06T02:53:23;10.98;;;8.30;;
11677;SDS011;5895;41.950;24.372;2023-08-06T02:55:50;9.90;;;7.97;;
11677;SDS011;5895;41.950;24.372;2023-08-06T02:58:18;9.63;;;8.77;;
11677;SDS011;5895;41.950;24.372;2023-08-06T03:00:59;10.43;;;9.43;;
11677;SDS011;5895;41.950;24.372;2023-08-06T03:03:27;10.15;;;9.15;;
11677;SDS011;5895;41.950;24.372;2023-08-06T03:05:55;10.60;;;8.43;;
11677;SDS011;5895;41.950;24.372;2023-08-06T03:08:22;10.02;;;9.13;;
11677;SDS011;5895;41.950;24.372;2023-08-06T03:10:50;12.35;;;9.48;;
11677;SDS011;5895;41.950;24.372;2023-08-06T03:13:17;8.95;;;8.05;;
11677;SDS011;5895;41.950;24.372;2023-08-06T03:15:51;10.23;;;8.07;;
11677;SDS011;5895;41.950;24.372;2023-08-06T03:18:20;9.32;;;8.07;;
11677;SDS011;5895;41.950;24.372;2023-08-06T03:20:48;10.35;;;9.05;;
11677;SDS011;5895;41.950;24.372;2023-08-06T03:23:15;12.25;;;9.35;;
11677;SDS011;5895;41.950;24.372;2023-08-06T03:25:42;9.77;;;7.63;;
11677;SDS011;5895;41.950;24.372;2023-08-06T03:28:10;14.57;;;12.95;;
11677;SDS011;5895;41.950;24.372;2023-08-06T03:30:37;12.85;;;11.65;;
11677;SDS011;5895;41.950;24.372;2023-08-06T03:33:04;12.80;;;11.50;;
11677;SDS011;5895;41.950;24.372;2023-08-06T03:35:33;12.27;;;11.13;;
11677;SDS011;5895;41.950;24.372;2023-08-06T03:38:00;12.30;;;11.10;;
11677;SDS011;5895;41.950;24.372;2023-08-06T03:40:27;11.88;;;10.70;;
11677;SDS011;5895;41.950;24.372;2023-08-06T03:42:55;11.27;;;10.27;;
11677;SDS011;5895;41.950;24.372;2023-08-06T03:45:22;11.70;;;10.70;;
11677;SDS011;5895;41.950;24.372;2023-08-06T03:47:49;11.32;;;10.27;;
11677;SDS011;5895;41.950;24.372;2023-08-06T03:50:17;11.98;;;10.77;;
11677;SDS011;5895;41.950;24.372;2023-08-06T03:52:45;11.60;;;10.25;;
11677;SDS011;5895;41.950;24.372;2023-08-06T03:55:13;10.25;;;9.27;;
11677;SDS011;5895;41.950;24.372;2023-08-06T03:57:40;11.60;;;10.60;;
11677;SDS011;5895;41.950;24.372;2023-08-06T04:00:07;10.93;;;10.00;;
11677;SDS011;5895;41.950;24.372;2023-08-06T04:02:35;10.20;;;9.23;;
11677;SDS011;5895;41.950;24.372;2023-08-06T04:05:03;11.80;;;9.90;;
11677;SDS011;5895;41.950;24.372;2023-08-06T04:07:30;10.32;;;9.35;;
11677;SDS011;5895;41.950;24.372;2023-08-06T04:09:59;10.25;;;9.13;;
11677;SDS011;5895;41.950;24.372;2023-08-06T04:12:27;9.25;;;8.30;;
11677;SDS011;5895;41.950;24.372;2023-08-06T04:14:54;8.57;;;7.78;;
11677;SDS011;5895;41.950;24.372;2023-08-06T04:17:22;9.98;;;8.60;;
11677;SDS011;5895;41.950;24.372;2023-08-06T04:19:50;9.18;;;8.35;;
11677;SDS011;5895;41.950;24.372;2023-08-06T04:22:18;8.23;;;7.45;;
11677;SDS011;5895;41.950;24.372;2023-08-06T04:24:45;8.23;;;7.43;;
11677;SDS011;5895;41.950;24.372;2023-08-06T04:27:14;8.30;;;7.50;;
11677;SDS011;5895;41.950;24.372;2023-08-06T04:29:42;7.85;;;7.15;;
11677;SDS011;5895;41.950;24.372;2023-08-06T04:32:10;10.27;;;7.75;;
11677;SDS011;5895;41.950;24.372;2023-08-06T04:34:37;10.00;;;8.65;;
11677;SDS011;5895;41.950;24.372;2023-08-06T04:37:04;13.48;;;10.65;;
11677;SDS011;5895;41.950;24.372;2023-08-06T04:39:32;11.40;;;10.30;;
11677;SDS011;5895;41.950;24.372;2023-08-06T04:41:59;11.07;;;10.02;;
11677;SDS011;5895;41.950;24.372;2023-08-06T04:44:28;10.70;;;9.73;;
11677;SDS011;5895;41.950;24.372;2023-08-06T04:46:55;10.43;;;9.43;;
11677;SDS011;5895;41.950;24.372;2023-08-06T04:49:22;9.98;;;8.63;;
11677;SDS011;5895;41.950;24.372;2023-08-06T04:51:49;9.80;;;8.80;;
11677;SDS011;5895;41.950;24.372;2023-08-06T04:54:17;9.95;;;8.98;;
11677;SDS011;5895;41.950;24.372;2023-08-06T04:56:44;9.93;;;9.02;;
11677;SDS011;5895;41.950;24.372;2023-08-06T04:59:11;9.85;;;8.93;;
11677;SDS011;5895;41.950;24.372;2023-08-06T05:01:40;11.68;;;9.60;;
11677;SDS011;5895;41.950;24.372;2023-08-06T05:04:07;11.68;;;9.45;;
11677;SDS011;5895;41.950;24.372;2023-08-06T05:06:34;13.27;;;9.45;;
11677;SDS011;5895;41.950;24.372;2023-08-06T05:09:03;11.98;;;9.95;;
11677;SDS011;5895;41.950;24.372;2023-08-06T05:11:31;10.80;;;9.43;;
11677;SDS011;5895;41.950;24.372;2023-08-06T05:13:58;9.52;;;8.73;;
11677;SDS011;5895;41.950;24.372;2023-08-06T05:16:25;14.40;;;9.13;;
11677;SDS011;5895;41.950;24.372;2023-08-06T05:18:54;13.93;;;12.32;;
11677;SDS011;5895;41.950;24.372;2023-08-06T05:21:21;13.75;;;11.73;;
11677;SDS011;5895;41.950;24.372;2023-08-06T05:23:48;12.25;;;11.02;;
11677;SDS011;5895;41.950;24.372;2023-08-06T05:26:16;15.57;;;12.48;;
11677;SDS011;5895;41.950;24.372;2023-08-06T05:28:44;12.07;;;10.95;;
11677;SDS011;5895;41.950;24.372;2023-08-06T05:31:12;12.98;;;10.75;;
11677;SDS011;5895;41.950;24.372;2023-08-06T05:33:39;12.15;;;11.02;;
11677;SDS011;5895;41.950;24.372;2023-08-06T05:36:08;13.27;;;11.32;;
11677;SDS011;5895;41.950;24.372;2023-08-06T05:38:35;11.63;;;10.43;;
11677;SDS011;5895;41.950;24.372;2023-08-06T05:41:02;11.65;;;9.80;;
11677;SDS011;5895;41.950;24.372;2023-08-06T05:43:30;10.80;;;9.90;;
11677;SDS011;5895;41.950;24.372;2023-08-06T05:45:57;12.13;;;9.38;;
11677;SDS011;5895;41.950;24.372;2023-08-06T05:50:52;9.88;;;8.98;;
11677;SDS011;5895;41.950;24.372;2023-08-06T05:53:21;9.98;;;8.98;;
11677;SDS011;5895;41.950;24.372;2023-08-06T05:55:48;10.90;;;9.80;;
11677;SDS011;5895;41.950;24.372;2023-08-06T05:58:15;11.35;;;10.27;;
11677;SDS011;5895;41.950;24.372;2023-08-06T06:00:45;11.18;;;10.13;;
11677;SDS011;5895;41.950;24.372;2023-08-06T06:03:12;11.75;;;10.55;;
11677;SDS011;5895;41.950;24.372;2023-08-06T06:05:39;10.38;;;9.38;;
11677;SDS011;5895;41.950;24.372;2023-08-06T06:08:07;11.90;;;9.98;;
11677;SDS011;5895;41.950;24.372;2023-08-06T06:10:36;11.98;;;10.98;;
11677;SDS011;5895;41.950;24.372;2023-08-06T06:13:03;12.88;;;11.65;;
11677;SDS011;5895;41.950;24.372;2023-08-06T06:15:30;12.20;;;11.10;;
11677;SDS011;5895;41.950;24.372;2023-08-06T06:17:58;12.63;;;11.43;;
11677;SDS011;5895;41.950;24.372;2023-08-06T06:20:25;14.52;;;12.95;;
11677;SDS011;5895;41.950;24.372;2023-08-06T06:22:52;13.23;;;11.82;;
11677;SDS011;5895;41.950;24.372;2023-08-06T06:25:19;13.48;;;12.07;;
11677;SDS011;5895;41.950;24.372;2023-08-06T06:27:48;12.02;;;10.82;;
11677;SDS011;5895;41.950;24.372;2023-08-06T06:30:16;10.73;;;9.82;;
11677;SDS011;5895;41.950;24.372;2023-08-06T06:32:43;10.00;;;9.20;;
11677;SDS011;5895;41.950;24.372;2023-08-06T06:35:10;11.07;;;10.07;;
11677;SDS011;5895;41.950;24.372;2023-08-06T06:37:37;9.98;;;9.05;;
11677;SDS011;5895;41.950;24.372;2023-08-06T06:40:05;10.43;;;9.30;;
11677;SDS011;5895;41.950;24.372;2023-08-06T06:42:33;10.50;;;9.50;;
11677;SDS011;5895;41.950;24.372;2023-08-06T06:45:01;11.05;;;10.15;;
11677;SDS011;5895;41.950;24.372;2023-08-06T06:47:28;10.73;;;9.70;;
11677;SDS011;5895;41.950;24.372;2023-08-06T06:49:55;10.07;;;9.10;;
11677;SDS011;5895;41.950;24.372;2023-08-06T06:52:23;11.07;;;9.65;;
11677;SDS011;5895;41.950;24.372;2023-08-06T06:54:50;10.23;;;9.23;;
11677;SDS011;5895;41.950;24.372;2023-08-06T06:57:17;11.23;;;10.13;;
11677;SDS011;5895;41.950;24.372;2023-08-06T06:59:45;10.68;;;9.80;;
11677;SDS011;5895;41.950;24.372;2023-08-06T07:02:14;10.68;;;9.77;;
11677;SDS011;5895;41.950;24.372;2023-08-06T07:04:41;12.52;;;11.43;;
11677;SDS011;5895;41.950;24.372;2023-08-06T07:07:08;11.32;;;10.35;;
11677;SDS011;5895;41.950;24.372;2023-08-06T07:09:36;11.88;;;10.77;;
11677;SDS011;5895;41.950;24.372;2023-08-06T07:12:03;11.63;;;10.43;;
11677;SDS011;5895;41.950;24.372;2023-08-06T07:14:31;11.30;;;10.30;;
11677;SDS011;5895;41.950;24.372;2023-08-06T07:16:58;13.25;;;12.05;;
11677;SDS011;5895;41.950;24.372;2023-08-06T07:19:27;12.55;;;11.25;;
11677;SDS011;5895;41.950;24.372;2023-08-06T07:21:54;13.52;;;12.35;;
11677;SDS011;5895;41.950;24.372;2023-08-06T07:24:22;14.07;;;12.68;;
11677;SDS011;5895;41.950;24.372;2023-08-06T07:26:49;14.00;;;12.68;;
11677;SDS011;5895;41.950;24.372;2023-08-06T07:29:18;13.25;;;12.15;;
11677;SDS011;5895;41.950;24.372;2023-08-06T07:31:47;13.93;;;12.68;;
11677;SDS011;5895;41.950;24.372;2023-08-06T07:34:15;13.77;;;12.52;;
11677;SDS011;5895;41.950;24.372;2023-08-06T07:36:45;16.10;;;14.63;;
11677;SDS011;5895;41.950;24.372;2023-08-06T07:39:13;17.38;;;15.60;;
11677;SDS011;5895;41.950;24.372;2023-08-06T07:41:42;18.38;;;16.52;;
11677;SDS011;5895;41.950;24.372;2023-08-06T07:44:11;16.25;;;14.75;;
11677;SDS011;5895;41.950;24.372;2023-08-06T07:46:38;15.40;;;14.00;;
11677;SDS011;5895;41.950;24.372;2023-08-06T07:49:05;12.55;;;11.27;;
11677;SDS011;5895;41.950;24.372;2023-08-06T07:51:33;11.55;;;10.55;;
11677;SDS011;5895;41.950;24.372;2023-08-06T07:54:01;7.30;;;6.60;;
11677;SDS011;5895;41.950;24.372;2023-08-06T07:56:28;8.00;;;7.18;;
11677;SDS011;5895;41.950;24.372;2023-08-06T07:58:56;7.10;;;6.50;;
11677;SDS011;5895;41.950;24.372;2023-08-06T08:01:23;5.63;;;5.20;;
11677;SDS011;5895;41.950;24.372;2023-08-06T08:03:50;5.95;;;5.35;;
11677;SDS011;5895;41.950;24.372;2023-08-06T08:06:18;8.38;;;5.35;;
11677;SDS011;5895;41.950;24.372;2023-08-06T08:08:45;6.18;;;5.57;;
11677;SDS011;5895;41.950;24.372;2023-08-06T08:11:14;6.55;;;5.55;;
11677;SDS011;5895;41.950;24.372;2023-08-06T08:13:43;6.40;;;5.80;;
11677;SDS011;5895;41.950;24.372;2023-08-06T08:16:10;6.25;;;5.75;;
11677;SDS011;5895;41.950;24.372;2023-08-06T08:18:37;6.70;;;6.03;;
11677;SDS011;5895;41.950;24.372;2023-08-06T08:21:04;6.78;;;6.10;;
11677;SDS011;5895;41.950;24.372;2023-08-06T08:23:32;7.20;;;6.60;;
11677;SDS011;5895;41.950;24.372;2023-08-06T08:25:59;7.28;;;6.43;;
11677;SDS011;5895;41.950;24.372;2023-08-06T08:28:28;6.85;;;6.22;;
11677;SDS011;5895;41.950;24.372;2023-08-06T08:30:56;5.80;;;5.30;;
11677;SDS011;5895;41.950;24.372;2023-08-06T08:33:23;4.88;;;4.38;;
11677;SDS011;5895;41.950;24.372;2023-08-06T08:35:51;6.82;;;4.30;;
11677;SDS011;5895;41.950;24.372;2023-08-06T08:38:18;5.45;;;5.03;;
11677;SDS011;5895;41.950;24.372;2023-08-06T08:40:46;5.32;;;4.93;;
11677;SDS011;5895;41.950;24.372;2023-08-06T08:43:17;5.97;;;5.45;;
11677;SDS011;5895;41.950;24.372;2023-08-06T08:45:50;5.75;;;5.25;;
11677;SDS011;5895;41.950;24.372;2023-08-06T08:48:20;5.82;;;5.32;;
11677;SDS011;5895;41.950;24.372;2023-08-06T08:50:48;5.20;;;4.70;;
11677;SDS011;5895;41.950;24.372;2023-08-06T08:53:16;5.95;;;5.05;;
11677;SDS011;5895;41.950;24.372;2023-08-06T08:55:46;6.00;;;5.50;;
11677;SDS011;5895;41.950;24.372;2023-08-06T08:58:14;6.45;;;5.85;;
11677;SDS011;5895;41.950;24.372;2023-08-06T09:00:42;5.68;;;5.20;;
11677;SDS011;5895;41.950;24.372;2023-08-06T09:03:13;6.82;;;6.13;;
11677;SDS011;5895;41.950;24.372;2023-08-06T09:05:43;6.38;;;5.88;;
11677;SDS011;5895;41.950;24.372;2023-08-06T09:08:12;6.60;;;6.00;;
11677;SDS011;5895;41.950;24.372;2023-08-06T09:10:44;6.95;;;6.38;;
11677;SDS011;5895;41.950;24.372;2023-08-06T09:13:13;7.03;;;6.43;;
11677;SDS011;5895;41.950;24.372;2023-08-06T09:15:41;6.63;;;6.07;;
11677;SDS011;5895;41.950;24.372;2023-08-06T09:18:09;7.40;;;6.45;;
11677;SDS011;5895;41.950;24.372;2023-08-06T09:20:39;7.32;;;6.53;;
11677;SDS011;5895;41.950;24.372;2023-08-06T09:23:09;6.85;;;6.20;;
11677;SDS011;5895;41.950;24.372;2023-08-06T09:25:37;6.80;;;6.07;;
11677;SDS011;5895;41.950;24.372;2023-08-06T09:28:06;6.53;;;5.82;;
11677;SDS011;5895;41.950;24.372;2023-08-06T09:30:34;6.20;;;5.70;;
11677;SDS011;5895;41.950;24.372;2023-08-06T09:33:02;6.93;;;5.93;;
11677;SDS011;5895;41.950;24.372;2023-08-06T09:35:35;6.70;;;6.00;;
11677;SDS011;5895;41.950;24.372;2023-08-06T09:38:07;7.50;;;6.80;;
11677;SDS011;5895;41.950;24.372;2023-08-06T09:40:36;6.78;;;6.22;;
11677;SDS011;5895;41.950;24.372;2023-08-06T09:43:04;7.90;;;6.28;;
11677;SDS011;5895;41.950;24.372;2023-08-06T09:45:32;7.85;;;7.15;;
11677;SDS011;5895;41.950;24.372;2023-08-06T09:48:01;7.35;;;6.65;;
11677;SDS011;5895;41.950;24.372;2023-08-06T09:50:30;6.80;;;6.20;;
11677;SDS011;5895;41.950;24.372;2023-08-06T09:53:01;8.23;;;7.28;;
11677;SDS011;5895;41.950;24.372;2023-08-06T09:55:30;9.38;;;8.55;;
11677;SDS011;5895;41.950;24.372;2023-08-06T09:57:59;8.88;;;8.07;;
11677;SDS011;5895;41.950;24.372;2023-08-06T10:00:26;11.07;;;8.93;;
11677;SDS011;5895;41.950;24.372;2023-08-06T10:02:55;9.15;;;7.88;;
11677;SDS011;5895;41.950;24.372;2023-08-06T10:05:26;7.85;;;7.25;;
11677;SDS011;5895;41.950;24.372;2023-08-06T10:07:54;8.65;;;7.30;;
11677;SDS011;5895;41.950;24.372;2023-08-06T10:10:24;8.18;;;7.57;;
11677;SDS011;5895;41.950;24.372;2023-08-06T10:12:55;8.48;;;7.78;;
11677;SDS011;5895;41.950;24.372;2023-08-06T10:15:26;8.98;;;8.27;;
11677;SDS011;5895;41.950;24.372;2023-08-06T10:17:56;9.20;;;8.40;;
11677;SDS011;5895;41.950;24.372;2023-08-06T10:20:26;9.63;;;8.73;;
11677;SDS011;5895;41.950;24.372;2023-08-06T10:23:00;8.88;;;8.18;;
11677;SDS011;5895;41.950;24.372;2023-08-06T10:25:30;10.23;;;8.93;;
11677;SDS011;5895;41.950;24.372;2023-08-06T10:28:00;8.50;;;7.80;;
11677;SDS011;5895;41.950;24.372;2023-08-06T10:30:33;7.15;;;6.53;;
11677;SDS011;5895;41.950;24.372;2023-08-06T10:33:07;7.78;;;7.03;;
11677;SDS011;5895;41.950;24.372;2023-08-06T10:35:35;9.07;;;8.20;;
11677;SDS011;5895;41.950;24.372;2023-08-06T10:38:03;8.13;;;7.32;;
11677;SDS011;5895;41.950;24.372;2023-08-06T10:40:31;7.32;;;6.72;;
11677;SDS011;5895;41.950;24.372;2023-08-06T10:43:01;7.60;;;6.35;;
11677;SDS011;5895;41.950;24.372;2023-08-06T10:45:29;6.60;;;6.00;;
11677;SDS011;5895;41.950;24.372;2023-08-06T10:47:56;6.80;;;6.13;;
11677;SDS011;5895;41.950;24.372;2023-08-06T10:50:24;7.38;;;6.78;;
11677;SDS011;5895;41.950;24.372;2023-08-06T10:52:52;8.00;;;7.40;;
11677;SDS011;5895;41.950;24.372;2023-08-06T10:55:23;8.45;;;7.78;;
11677;SDS011;5895;41.950;24.372;2023-08-06T10:57:51;8.10;;;7.40;;
11677;SDS011;5895;41.950;24.372;2023-08-06T11:00:20;7.95;;;7.25;;
11677;SDS011;5895;41.950;24.372;2023-08-06T11:02:49;7.85;;;7.05;;
11677;SDS011;5895;41.950;24.372;2023-08-06T11:05:16;7.25;;;6.65;;
11677;SDS011;5895;41.950;24.372;2023-08-06T11:07:44;7.70;;;7.10;;
11677;SDS011;5895;41.950;24.372;2023-08-06T11:10:13;7.72;;;6.90;;
11677;SDS011;5895;41.950;24.372;2023-08-06T11:12:40;7.63;;;7.00;;
11677;SDS011;5895;41.950;24.372;2023-08-06T11:15:08;8.02;;;7.43;;
11677;SDS011;5895;41.950;24.372;2023-08-06T11:17:39;9.00;;;8.30;;
11677;SDS011;5895;41.950;24.372;2023-08-06T11:20:08;8.05;;;7.38;;
11677;SDS011;5895;41.950;24.372;2023-08-06T11:22:36;7.38;;;6.68;;
11677;SDS011;5895;41.950;24.372;2023-08-06T11:25:05;7.55;;;6.85;;
11677;SDS011;5895;41.950;24.372;2023-08-06T11:27:33;8.98;;;8.07;;
11677;SDS011;5895;41.950;24.372;2023-08-06T11:30:01;9.25;;;8.40;;
11677;SDS011;5895;41.950;24.372;2023-08-06T11:32:29;9.20;;;8.32;;
11677;SDS011;5895;41.950;24.372;2023-08-06T11:34:58;9.00;;;8.30;;
11677;SDS011;5895;41.950;24.372;2023-08-06T11:37:25;9.10;;;8.40;;
11677;SDS011;5895;41.950;24.372;2023-08-06T11:39:52;9.02;;;8.23;;
11677;SDS011;5895;41.950;24.372;2023-08-06T11:42:19;8.88;;;8.10;;
11677;SDS011;5895;41.950;24.372;2023-08-06T11:44:47;8.23;;;7.35;;
11677;SDS011;5895;41.950;24.372;2023-08-06T11:47:14;9.00;;;8.20;;
11677;SDS011;5895;41.950;24.372;2023-08-06T11:49:43;8.88;;;7.97;;
11677;SDS011;5895;41.950;24.372;2023-08-06T11:52:17;7.65;;;7.05;;
11677;SDS011;5895;41.950;24.372;2023-08-06T11:54:46;8.75;;;7.93;;
11677;SDS011;5895;41.950;24.372;2023-08-06T11:57:15;7.63;;;6.90;;
11677;SDS011;5895;41.950;24.372;2023-08-06T11:59:43;7.30;;;6.60;;
11677;SDS011;5895;41.950;24.372;2023-08-06T12:02:10;7.82;;;7.03;;
11677;SDS011;5895;41.950;24.372;2023-08-06T12:07:29;7.68;;;7.07;;
11677;SDS011;5895;41.950;24.372;2023-08-06T12:09:58;7.32;;;6.63;;
11677;SDS011;5895;41.950;24.372;2023-08-06T12:12:25;7.43;;;6.82;;
11677;SDS011;5895;41.950;24.372;2023-08-06T12:14:53;7.13;;;6.53;;
11677;SDS011;5895;41.950;24.372;2023-08-06T12:17:21;6.85;;;6.25;;
11677;SDS011;5895;41.950;24.372;2023-08-06T12:19:48;6.78;;;6.10;;
11677;SDS011;5895;41.950;24.372;2023-08-06T12:22:16;7.07;;;6.28;;
11677;SDS011;5895;41.950;24.372;2023-08-06T12:24:45;6.60;;;6.00;;
11677;SDS011;5895;41.950;24.372;2023-08-06T12:27:14;5.82;;;5.38;;
11677;SDS011;5895;41.950;24.372;2023-08-06T12:29:41;5.60;;;4.57;;
11677;SDS011;5895;41.950;24.372;2023-08-06T12:32:09;4.28;;;3.92;;
11677;SDS011;5895;41.950;24.372;2023-08-06T12:34:37;5.20;;;3.90;;
11677;SDS011;5895;41.950;24.372;2023-08-06T12:37:05;4.10;;;3.75;;
11677;SDS011;5895;41.950;24.372;2023-08-06T12:39:33;5.28;;;3.92;;
11677;SDS011;5895;41.950;24.372;2023-08-06T12:42:02;4.05;;;3.67;;
11677;SDS011;5895;41.950;24.372;2023-08-06T12:44:30;9.32;;;4.35;;
11677;SDS011;5895;41.950;24.372;2023-08-06T12:46:57;4.28;;;3.88;;
11677;SDS011;5895;41.950;24.372;2023-08-06T12:49:25;3.85;;;3.55;;
11677;SDS011;5895;41.950;24.372;2023-08-06T12:51:57;5.43;;;3.90;;
11677;SDS011;5895;41.950;24.372;2023-08-06T12:54:25;8.65;;;4.00;;
11677;SDS011;5895;41.950;24.372;2023-08-06T12:56:53;3.50;;;3.20;;
11677;SDS011;5895;41.950;24.372;2023-08-06T12:59:21;3.70;;;2.92;;
11677;SDS011;5895;41.950;24.372;2023-08-06T13:01:49;3.58;;;2.88;;
11677;SDS011;5895;41.950;24.372;2023-08-06T13:04:16;4.07;;;2.90;;
11677;SDS011;5895;41.950;24.372;2023-08-06T13:06:43;3.28;;;2.78;;
11677;SDS011;5895;41.950;24.372;2023-08-06T13:09:11;3.17;;;2.88;;
11677;SDS011;5895;41.950;24.372;2023-08-06T13:11:39;3.35;;;2.90;;
11677;SDS011;5895;41.950;24.372;2023-08-06T13:14:07;3.80;;;2.60;;
11677;SDS011;5895;41.950;24.372;2023-08-06T13:16:38;4.13;;;2.60;;
11677;SDS011;5895;41.950;24.372;2023-08-06T13:19:06;3.20;;;2.90;;
11677;SDS011;5895;41.950;24.372;2023-08-06T13:21:34;3.10;;;2.90;;
11677;SDS011;5895;41.950;24.372;2023-08-06T13:24:19;3.55;;;3.08;;
11677;SDS011;5895;41.950;24.372;2023-08-06T13:26:46;2.75;;;2.55;;
11677;SDS011;5895;41.950;24.372;2023-08-06T13:29:13;3.72;;;3.10;;
11677;SDS011;5895;41.950;24.372;2023-08-06T13:31:42;3.90;;;3.10;;
11677;SDS011;5895;41.950;24.372;2023-08-06T13:34:09;3.30;;;3.00;;
11677;SDS011;5895;41.950;24.372;2023-08-06T13:36:37;4.82;;;3.15;;
11677;SDS011;5895;41.950;24.372;2023-08-06T13:39:04;3.50;;;3.20;;
11677;SDS011;5895;41.950;24.372;2023-08-06T13:41:31;3.22;;;2.92;;
11677;SDS011;5895;41.950;24.372;2023-08-06T13:43:59;3.28;;;2.97;;
11677;SDS011;5895;41.950;24.372;2023-08-06T13:46:26;3.97;;;3.17;;
11677;SDS011;5895;41.950;24.372;2023-08-06T13:48:55;4.28;;;2.88;;
11677;SDS011;5895;41.950;24.372;2023-08-06T13:51:23;4.45;;;2.90;;
11677;SDS011;5895;41.950;24.372;2023-08-06T13:53:50;4.80;;;2.80;;
11677;SDS011;5895;41.950;24.372;2023-08-06T13:56:19;3.25;;;2.95;;
11677;SDS011;5895;41.950;24.372;2023-08-06T13:58:48;3.65;;;2.88;;
11677;SDS011;5895;41.950;24.372;2023-08-06T14:01:17;4.40;;;2.80;;
11677;SDS011;5895;41.950;24.372;2023-08-06T14:03:45;2.92;;;2.65;;
11677;SDS011;5895;41.950;24.372;2023-08-06T14:06:13;2.92;;;2.72;;
11677;SDS011;5895;41.950;24.372;2023-08-06T14:08:41;4.00;;;2.60;;
11677;SDS011;5895;41.950;24.372;2023-08-06T14:11:08;3.78;;;2.90;;
11677;SDS011;5895;41.950;24.372;2023-08-06T14:13:36;3.45;;;3.15;;
11677;SDS011;5895;41.950;24.372;2023-08-06T14:16:03;5.43;;;2.92;;
11677;SDS011;5895;41.950;24.372;2023-08-06T14:18:30;4.13;;;3.17;;
11677;SDS011;5895;41.950;24.372;2023-08-06T14:20:58;4.00;;;2.90;;
11677;SDS011;5895;41.950;24.372;2023-08-06T14:23:27;3.70;;;3.00;;
11677;SDS011;5895;41.950;24.372;2023-08-06T14:25:54;4.72;;;3.15;;
11677;SDS011;5895;41.950;24.372;2023-08-06T14:28:21;3.85;;;2.67;;
11677;SDS011;5895;41.950;24.372;2023-08-06T14:30:49;5.35;;;3.10;;
11677;SDS011;5895;41.950;24.372;2023-08-06T14:33:16;4.25;;;3.03;;
11677;SDS011;5895;41.950;24.372;2023-08-06T14:35:43;4.72;;;3.63;;
11677;SDS011;5895;41.950;24.372;2023-08-06T14:38:10;3.85;;;3.45;;
11677;SDS011;5895;41.950;24.372;2023-08-06T14:40:39;3.40;;;3.08;;
11677;SDS011;5895;41.950;24.372;2023-08-06T14:43:07;5.43;;;3.25;;
11677;SDS011;5895;41.950;24.372;2023-08-06T14:45:37;3.60;;;3.10;;
11677;SDS011;5895;41.950;24.372;2023-08-06T14:48:04;7.57;;;3.60;;
11677;SDS011;5895;41.950;24.372;2023-08-06T14:50:32;4.05;;;3.50;;